sensor_id;sensor_type;location;lat;lon;timestamp;P1;durP1;ratioP1;P2;durP2;ratioP2
16593;SDS011;8410;52.532;13.336;2022-07-23T00:00:55;8.52;;;7.82;;
16593;SDS011;8410;52.532;13.336;2022-07-23T00:05:59;7.85;;;6.72;;
16593;SDS011;8410;52.532;13.336;2022-07-23T00:12:33;7.22;;;6.53;;
16593;SDS011;8410;52.532;13.336;2022-07-23T00:15:15;7.18;;;6.30;;
16593;SDS011;8410;52.532;13.336;2022-07-23T00:17:44;6.55;;;5.85;;
16593;SDS011;8410;52.532;13.336;2022-07-23T00:20:12;6.53;;;5.40;;
16593;SDS011;8410;52.532;13.336;2022-07-23T00:22:45;6.57;;;5.95;;
16593;SDS011;8410;52.532;13.336;2022-07-23T00:25:14;5.65;;;5.05;;
16593;SDS011;8410;52.532;13.336;2022-07-23T00:27:58;6.10;;;5.60;;
16593;SDS011;8410;52.532;13.336;2022-07-23T00:30:27;6.20;;;5.07;;
16593;SDS011;8410;52.532;13.336;2022-07-23T00:32:59;5.70;;;5.13;;
16593;SDS011;8410;52.532;13.336;2022-07-23T00:35:30;6.05;;;4.88;;
16593;SDS011;8410;52.532;13.336;2022-07-23T00:38:01;5.50;;;4.97;;
16593;SDS011;8410;52.532;13.336;2022-07-23T00:40:30;4.78;;;4.38;;
16593;SDS011;8410;52.532;13.336;2022-07-23T00:42:59;5.75;;;4.90;;
16593;SDS011;8410;52.532;13.336;2022-07-23T00:45:27;5.80;;;5.07;;
16593;SDS011;8410;52.532;13.336;2022-07-23T00:47:57;5.10;;;4.60;;
16593;SDS011;8410;52.532;13.336;2022-07-23T00:50:26;6.70;;;5.70;;
16593;SDS011;8410;52.532;13.336;2022-07-23T00:52:55;5.35;;;4.65;;
16593;SDS011;8410;52.532;13.336;2022-07-23T00:55:23;5.03;;;4.60;;
16593;SDS011;8410;52.532;13.336;2022-07-23T00:57:51;5.43;;;4.80;;
16593;SDS011;8410;52.532;13.336;2022-07-23T01:00:21;5.25;;;4.75;;
16593;SDS011;8410;52.532;13.336;2022-07-23T01:02:48;5.85;;;4.80;;
16593;SDS011;8410;52.532;13.336;2022-07-23T01:05:18;5.35;;;4.85;;
16593;SDS011;8410;52.532;13.336;2022-07-23T01:07:48;5.40;;;4.90;;
16593;SDS011;8410;52.532;13.336;2022-07-23T01:10:21;6.43;;;5.10;;
16593;SDS011;8410;52.532;13.336;2022-07-23T01:13:00;5.45;;;4.50;;
16593;SDS011;8410;52.532;13.336;2022-07-23T01:15:32;5.78;;;5.18;;
16593;SDS011;8410;52.532;13.336;2022-07-23T01:18:01;6.05;;;5.10;;
16593;SDS011;8410;52.532;13.336;2022-07-23T01:20:31;6.45;;;4.82;;
16593;SDS011;8410;52.532;13.336;2022-07-23T01:23:01;5.38;;;4.60;;
16593;SDS011;8410;52.532;13.336;2022-07-23T01:25:29;7.43;;;5.00;;
16593;SDS011;8410;52.532;13.336;2022-07-23T01:27:57;5.30;;;4.80;;
16593;SDS011;8410;52.532;13.336;2022-07-23T01:30:25;6.65;;;4.68;;
16593;SDS011;8410;52.532;13.336;2022-07-23T01:32:53;4.68;;;4.28;;
16593;SDS011;8410;52.532;13.336;2022-07-23T01:35:21;4.85;;;4.45;;
16593;SDS011;8410;52.532;13.336;2022-07-23T01:37:49;5.88;;;5.00;;
16593;SDS011;8410;52.532;13.336;2022-07-23T01:40:18;6.00;;;4.85;;
16593;SDS011;8410;52.532;13.336;2022-07-23T01:42:47;5.60;;;5.10;;
16593;SDS011;8410;52.532;13.336;2022-07-23T01:45:15;5.85;;;5.25;;
16593;SDS011;8410;52.532;13.336;2022-07-23T01:47:43;6.05;;;4.45;;
16593;SDS011;8410;52.532;13.336;2022-07-23T01:50:11;5.32;;;4.82;;
16593;SDS011;8410;52.532;13.336;2022-07-23T01:52:39;6.10;;;4.97;;
16593;SDS011;8410;52.532;13.336;2022-07-23T01:55:08;6.72;;;4.70;;
16593;SDS011;8410;52.532;13.336;2022-07-23T01:57:45;5.20;;;4.53;;
16593;SDS011;8410;52.532;13.336;2022-07-23T02:00:13;4.68;;;4.28;;
16593;SDS011;8410;52.532;13.336;2022-07-23T02:02:41;5.70;;;4.22;;
16593;SDS011;8410;52.532;13.336;2022-07-23T02:05:09;6.68;;;4.97;;
16593;SDS011;8410;52.532;13.336;2022-07-23T02:07:37;4.60;;;4.20;;
16593;SDS011;8410;52.532;13.336;2022-07-23T02:10:05;5.55;;;5.05;;
16593;SDS011;8410;52.532;13.336;2022-07-23T02:12:34;5.22;;;4.63;;
16593;SDS011;8410;52.532;13.336;2022-07-23T02:15:04;6.40;;;5.20;;
16593;SDS011;8410;52.532;13.336;2022-07-23T02:17:35;6.68;;;5.38;;
16593;SDS011;8410;52.532;13.336;2022-07-23T02:20:03;8.10;;;6.10;;
16593;SDS011;8410;52.532;13.336;2022-07-23T02:22:33;6.32;;;5.45;;
16593;SDS011;8410;52.532;13.336;2022-07-23T02:25:02;5.78;;;5.10;;
16593;SDS011;8410;52.532;13.336;2022-07-23T02:27:31;6.53;;;5.28;;
16593;SDS011;8410;52.532;13.336;2022-07-23T02:29:59;7.40;;;6.22;;
16593;SDS011;8410;52.532;13.336;2022-07-23T02:32:28;10.13;;;5.03;;
16593;SDS011;8410;52.532;13.336;2022-07-23T02:34:56;8.38;;;5.85;;
16593;SDS011;8410;52.532;13.336;2022-07-23T02:37:24;6.72;;;5.57;;
16593;SDS011;8410;52.532;13.336;2022-07-23T02:39:52;5.63;;;5.13;;
16593;SDS011;8410;52.532;13.336;2022-07-23T02:42:20;4.93;;;4.50;;
16593;SDS011;8410;52.532;13.336;2022-07-23T02:44:52;8.18;;;5.63;;
16593;SDS011;8410;52.532;13.336;2022-07-23T02:47:20;7.03;;;5.07;;
16593;SDS011;8410;52.532;13.336;2022-07-23T02:49:49;11.35;;;5.53;;
16593;SDS011;8410;52.532;13.336;2022-07-23T02:52:17;8.35;;;6.05;;
16593;SDS011;8410;52.532;13.336;2022-07-23T02:54:45;7.93;;;5.97;;
16593;SDS011;8410;52.532;13.336;2022-07-23T02:57:13;7.85;;;4.97;;
16593;SDS011;8410;52.532;13.336;2022-07-23T02:59:41;8.18;;;5.97;;
16593;SDS011;8410;52.532;13.336;2022-07-23T03:02:09;8.60;;;5.90;;
16593;SDS011;8410;52.532;13.336;2022-07-23T03:04:37;7.00;;;5.43;;
16593;SDS011;8410;52.532;13.336;2022-07-23T03:07:06;7.80;;;5.95;;
16593;SDS011;8410;52.532;13.336;2022-07-23T03:09:34;10.20;;;5.68;;
16593;SDS011;8410;52.532;13.336;2022-07-23T03:12:02;7.10;;;5.93;;
16593;SDS011;8410;52.532;13.336;2022-07-23T03:14:36;8.93;;;6.32;;
16593;SDS011;8410;52.532;13.336;2022-07-23T03:17:05;9.07;;;5.97;;
16593;SDS011;8410;52.532;13.336;2022-07-23T03:19:33;7.37;;;6.00;;
16593;SDS011;8410;52.532;13.336;2022-07-23T03:22:01;8.00;;;5.63;;
16593;SDS011;8410;52.532;13.336;2022-07-23T03:24:30;8.85;;;5.10;;
16593;SDS011;8410;52.532;13.336;2022-07-23T03:27:12;6.57;;;5.23;;
16593;SDS011;8410;52.532;13.336;2022-07-23T03:29:40;8.80;;;4.97;;
16593;SDS011;8410;52.532;13.336;2022-07-23T03:32:08;7.38;;;5.15;;
16593;SDS011;8410;52.532;13.336;2022-07-23T03:34:36;7.30;;;4.53;;
16593;SDS011;8410;52.532;13.336;2022-07-23T03:37:06;5.38;;;4.20;;
16593;SDS011;8410;52.532;13.336;2022-07-23T03:39:35;4.63;;;3.60;;
16593;SDS011;8410;52.532;13.336;2022-07-23T03:42:03;4.75;;;3.78;;
16593;SDS011;8410;52.532;13.336;2022-07-23T03:44:31;4.50;;;3.35;;
16593;SDS011;8410;52.532;13.336;2022-07-23T03:46:59;8.45;;;3.42;;
16593;SDS011;8410;52.532;13.336;2022-07-23T03:49:28;5.68;;;3.38;;
16593;SDS011;8410;52.532;13.336;2022-07-23T03:51:56;6.18;;;3.00;;
16593;SDS011;8410;52.532;13.336;2022-07-23T03:54:24;7.30;;;3.50;;
16593;SDS011;8410;52.532;13.336;2022-07-23T03:56:53;5.68;;;2.67;;
16593;SDS011;8410;52.532;13.336;2022-07-23T03:59:21;3.58;;;2.58;;
16593;SDS011;8410;52.532;13.336;2022-07-23T04:01:49;4.15;;;2.40;;
16593;SDS011;8410;52.532;13.336;2022-07-23T04:04:17;6.05;;;2.80;;
16593;SDS011;8410;52.532;13.336;2022-07-23T04:06:45;4.35;;;2.60;;
16593;SDS011;8410;52.532;13.336;2022-07-23T04:09:13;4.25;;;2.70;;
16593;SDS011;8410;52.532;13.336;2022-07-23T04:11:41;4.50;;;2.33;;
16593;SDS011;8410;52.532;13.336;2022-07-23T04:14:10;6.05;;;2.85;;
16593;SDS011;8410;52.532;13.336;2022-07-23T04:16:38;5.18;;;2.55;;
16593;SDS011;8410;52.532;13.336;2022-07-23T04:19:06;4.57;;;2.45;;
16593;SDS011;8410;52.532;13.336;2022-07-23T04:21:33;3.70;;;2.30;;
16593;SDS011;8410;52.532;13.336;2022-07-23T04:24:01;4.32;;;2.30;;
16593;SDS011;8410;52.532;13.336;2022-07-23T04:26:29;4.28;;;2.30;;
16593;SDS011;8410;52.532;13.336;2022-07-23T04:28:57;5.97;;;2.10;;
16593;SDS011;8410;52.532;13.336;2022-07-23T04:31:27;5.78;;;2.35;;
16593;SDS011;8410;52.532;13.336;2022-07-23T04:34:02;4.13;;;2.28;;
16593;SDS011;8410;52.532;13.336;2022-07-23T04:36:30;6.23;;;2.40;;
16593;SDS011;8410;52.532;13.336;2022-07-23T04:38:58;7.23;;;2.57;;
16593;SDS011;8410;52.532;13.336;2022-07-23T04:41:26;5.83;;;2.43;;
16593;SDS011;8410;52.532;13.336;2022-07-23T04:43:54;6.00;;;2.70;;
16593;SDS011;8410;52.532;13.336;2022-07-23T04:46:22;6.50;;;2.33;;
16593;SDS011;8410;52.532;13.336;2022-07-23T04:48:52;4.07;;;2.27;;
16593;SDS011;8410;52.532;13.336;2022-07-23T04:51:20;6.20;;;3.00;;
16593;SDS011;8410;52.532;13.336;2022-07-23T04:53:48;6.17;;;2.47;;
16593;SDS011;8410;52.532;13.336;2022-07-23T04:56:15;6.63;;;2.37;;
16593;SDS011;8410;52.532;13.336;2022-07-23T04:58:43;5.63;;;2.70;;
16593;SDS011;8410;52.532;13.336;2022-07-23T05:01:11;5.33;;;2.73;;
16593;SDS011;8410;52.532;13.336;2022-07-23T05:03:39;6.27;;;3.27;;
16593;SDS011;8410;52.532;13.336;2022-07-23T05:06:08;5.57;;;2.97;;
16593;SDS011;8410;52.532;13.336;2022-07-23T05:08:36;5.47;;;2.73;;
16593;SDS011;8410;52.532;13.336;2022-07-23T05:11:04;9.17;;;3.33;;
16593;SDS011;8410;52.532;13.336;2022-07-23T05:13:32;6.03;;;3.13;;
16593;SDS011;8410;52.532;13.336;2022-07-23T05:16:00;8.43;;;2.77;;
16593;SDS011;8410;52.532;13.336;2022-07-23T05:18:28;3.83;;;2.83;;
16593;SDS011;8410;52.532;13.336;2022-07-23T05:20:56;6.43;;;2.87;;
16593;SDS011;8410;52.532;13.336;2022-07-23T05:23:25;4.93;;;3.37;;
16593;SDS011;8410;52.532;13.336;2022-07-23T05:25:53;8.50;;;4.00;;
16593;SDS011;8410;52.532;13.336;2022-07-23T05:28:20;6.57;;;4.37;;
16593;SDS011;8410;52.532;13.336;2022-07-23T05:30:49;5.53;;;4.20;;
16593;SDS011;8410;52.532;13.336;2022-07-23T05:33:17;8.30;;;4.67;;
16593;SDS011;8410;52.532;13.336;2022-07-23T05:35:46;6.87;;;3.87;;
16593;SDS011;8410;52.532;13.336;2022-07-23T05:38:14;5.10;;;3.50;;
16593;SDS011;8410;52.532;13.336;2022-07-23T05:40:43;5.43;;;3.60;;
16593;SDS011;8410;52.532;13.336;2022-07-23T05:43:11;6.57;;;4.10;;
16593;SDS011;8410;52.532;13.336;2022-07-23T05:45:39;6.90;;;3.90;;
16593;SDS011;8410;52.532;13.336;2022-07-23T05:48:06;6.57;;;3.93;;
16593;SDS011;8410;52.532;13.336;2022-07-23T05:50:34;6.87;;;4.10;;
16593;SDS011;8410;52.532;13.336;2022-07-23T05:53:02;7.33;;;3.70;;
16593;SDS011;8410;52.532;13.336;2022-07-23T05:55:30;5.20;;;3.43;;
16593;SDS011;8410;52.532;13.336;2022-07-23T05:57:59;6.70;;;3.70;;
16593;SDS011;8410;52.532;13.336;2022-07-23T06:00:27;5.37;;;3.83;;
16593;SDS011;8410;52.532;13.336;2022-07-23T06:02:57;6.20;;;4.03;;
16593;SDS011;8410;52.532;13.336;2022-07-23T06:05:25;6.30;;;4.17;;
16593;SDS011;8410;52.532;13.336;2022-07-23T06:07:53;6.80;;;4.57;;
16593;SDS011;8410;52.532;13.336;2022-07-23T06:10:21;5.33;;;3.63;;
16593;SDS011;8410;52.532;13.336;2022-07-23T06:12:49;6.87;;;3.60;;
16593;SDS011;8410;52.532;13.336;2022-07-23T06:15:18;7.47;;;4.17;;
16593;SDS011;8410;52.532;13.336;2022-07-23T06:17:46;7.90;;;5.33;;
16593;SDS011;8410;52.532;13.336;2022-07-23T06:20:14;5.63;;;4.33;;
16593;SDS011;8410;52.532;13.336;2022-07-23T06:22:42;8.33;;;4.50;;
16593;SDS011;8410;52.532;13.336;2022-07-23T06:25:10;6.10;;;4.63;;
16593;SDS011;8410;52.532;13.336;2022-07-23T06:27:44;7.33;;;5.37;;
16593;SDS011;8410;52.532;13.336;2022-07-23T06:30:13;10.17;;;4.87;;
16593;SDS011;8410;52.532;13.336;2022-07-23T06:32:45;8.73;;;4.63;;
16593;SDS011;8410;52.532;13.336;2022-07-23T06:35:14;7.23;;;4.63;;
16593;SDS011;8410;52.532;13.336;2022-07-23T06:37:44;6.37;;;4.77;;
16593;SDS011;8410;52.532;13.336;2022-07-23T06:40:13;7.53;;;4.70;;
16593;SDS011;8410;52.532;13.336;2022-07-23T06:42:41;7.17;;;5.27;;
16593;SDS011;8410;52.532;13.336;2022-07-23T06:45:09;9.60;;;5.13;;
16593;SDS011;8410;52.532;13.336;2022-07-23T06:47:37;6.20;;;4.70;;
16593;SDS011;8410;52.532;13.336;2022-07-23T06:50:08;8.43;;;4.40;;
16593;SDS011;8410;52.532;13.336;2022-07-23T06:52:36;4.43;;;3.10;;
16593;SDS011;8410;52.532;13.336;2022-07-23T06:55:08;5.23;;;2.57;;
16593;SDS011;8410;52.532;13.336;2022-07-23T06:57:36;5.13;;;2.97;;
16593;SDS011;8410;52.532;13.336;2022-07-23T07:00:05;5.07;;;2.97;;
16593;SDS011;8410;52.532;13.336;2022-07-23T07:02:34;9.57;;;4.30;;
16593;SDS011;8410;52.532;13.336;2022-07-23T07:05:02;7.27;;;4.47;;
16593;SDS011;8410;52.532;13.336;2022-07-23T07:07:33;8.10;;;5.00;;
16593;SDS011;8410;52.532;13.336;2022-07-23T07:10:01;9.53;;;6.00;;
16593;SDS011;8410;52.532;13.336;2022-07-23T07:12:29;7.37;;;4.03;;
16593;SDS011;8410;52.532;13.336;2022-07-23T07:14:57;7.20;;;5.03;;
16593;SDS011;8410;52.532;13.336;2022-07-23T07:17:25;6.13;;;4.20;;
16593;SDS011;8410;52.532;13.336;2022-07-23T07:19:53;5.93;;;2.57;;
16593;SDS011;8410;52.532;13.336;2022-07-23T07:22:21;4.50;;;2.63;;
16593;SDS011;8410;52.532;13.336;2022-07-23T07:24:50;6.70;;;2.72;;
16593;SDS011;8410;52.532;13.336;2022-07-23T07:27:18;7.80;;;3.53;;
16593;SDS011;8410;52.532;13.336;2022-07-23T07:29:46;6.30;;;4.18;;
16593;SDS011;8410;52.532;13.336;2022-07-23T07:32:14;8.73;;;3.47;;
16593;SDS011;8410;52.532;13.336;2022-07-23T07:35:02;5.13;;;3.53;;
16593;SDS011;8410;52.532;13.336;2022-07-23T07:37:30;5.72;;;3.72;;
16593;SDS011;8410;52.532;13.336;2022-07-23T07:39:59;5.25;;;3.90;;
16593;SDS011;8410;52.532;13.336;2022-07-23T07:42:27;7.07;;;3.90;;
16593;SDS011;8410;52.532;13.336;2022-07-23T07:44:56;5.50;;;4.00;;
16593;SDS011;8410;52.532;13.336;2022-07-23T07:47:24;8.13;;;4.35;;
16593;SDS011;8410;52.532;13.336;2022-07-23T07:49:52;5.87;;;4.00;;
16593;SDS011;8410;52.532;13.336;2022-07-23T07:52:19;6.07;;;4.67;;
16593;SDS011;8410;52.532;13.336;2022-07-23T07:54:47;7.20;;;5.27;;
16593;SDS011;8410;52.532;13.336;2022-07-23T07:57:18;10.20;;;5.90;;
16593;SDS011;8410;52.532;13.336;2022-07-23T07:59:51;4.00;;;2.50;;
16593;SDS011;8410;52.532;13.336;2022-07-23T08:02:21;6.07;;;4.30;;
16593;SDS011;8410;52.532;13.336;2022-07-23T08:04:49;6.67;;;4.50;;
16593;SDS011;8410;52.532;13.336;2022-07-23T08:07:22;7.60;;;4.85;;
16593;SDS011;8410;52.532;13.336;2022-07-23T08:09:50;5.77;;;4.80;;
16593;SDS011;8410;52.532;13.336;2022-07-23T08:12:19;8.55;;;4.88;;
16593;SDS011;8410;52.532;13.336;2022-07-23T08:14:47;6.53;;;4.93;;
16593;SDS011;8410;52.532;13.336;2022-07-23T08:17:14;6.33;;;4.27;;
16593;SDS011;8410;52.532;13.336;2022-07-23T08:19:42;5.53;;;3.80;;
16593;SDS011;8410;52.532;13.336;2022-07-23T08:22:11;6.73;;;4.03;;
16593;SDS011;8410;52.532;13.336;2022-07-23T08:24:39;7.13;;;3.93;;
16593;SDS011;8410;52.532;13.336;2022-07-23T08:27:07;5.93;;;3.37;;
16593;SDS011;8410;52.532;13.336;2022-07-23T08:29:36;5.47;;;3.33;;
16593;SDS011;8410;52.532;13.336;2022-07-23T08:32:04;5.45;;;3.58;;
16593;SDS011;8410;52.532;13.336;2022-07-23T08:34:52;8.40;;;3.20;;
16593;SDS011;8410;52.532;13.336;2022-07-23T08:37:20;5.47;;;2.70;;
16593;SDS011;8410;52.532;13.336;2022-07-23T08:39:48;3.83;;;2.23;;
16593;SDS011;8410;52.532;13.336;2022-07-23T08:42:16;6.87;;;2.80;;
16593;SDS011;8410;52.532;13.336;2022-07-23T08:44:47;5.13;;;3.50;;
16593;SDS011;8410;52.532;13.336;2022-07-23T08:47:15;5.97;;;2.97;;
16593;SDS011;8410;52.532;13.336;2022-07-23T08:49:45;6.57;;;3.77;;
16593;SDS011;8410;52.532;13.336;2022-07-23T08:52:14;6.10;;;3.33;;
16593;SDS011;8410;52.532;13.336;2022-07-23T08:54:42;5.73;;;3.03;;
16593;SDS011;8410;52.532;13.336;2022-07-23T08:57:11;5.75;;;3.50;;
16593;SDS011;8410;52.532;13.336;2022-07-23T08:59:38;6.85;;;3.50;;
16593;SDS011;8410;52.532;13.336;2022-07-23T09:02:09;7.63;;;3.80;;
16593;SDS011;8410;52.532;13.336;2022-07-23T09:04:37;5.63;;;3.43;;
16593;SDS011;8410;52.532;13.336;2022-07-23T09:07:06;7.90;;;2.97;;
16593;SDS011;8410;52.532;13.336;2022-07-23T09:09:35;7.00;;;3.70;;
16593;SDS011;8410;52.532;13.336;2022-07-23T09:12:03;5.63;;;3.70;;
16593;SDS011;8410;52.532;13.336;2022-07-23T09:14:38;6.57;;;3.10;;
16593;SDS011;8410;52.532;13.336;2022-07-23T09:17:11;4.93;;;3.60;;
16593;SDS011;8410;52.532;13.336;2022-07-23T09:19:41;8.80;;;3.85;;
16593;SDS011;8410;52.532;13.336;2022-07-23T09:22:18;7.32;;;3.60;;
16593;SDS011;8410;52.532;13.336;2022-07-23T09:25:03;6.22;;;3.80;;
16593;SDS011;8410;52.532;13.336;2022-07-23T09:27:48;6.47;;;3.78;;
16593;SDS011;8410;52.532;13.336;2022-07-23T09:30:21;5.75;;;4.05;;
16593;SDS011;8410;52.532;13.336;2022-07-23T09:33:08;4.40;;;3.85;;
16593;SDS011;8410;52.532;13.336;2022-07-23T09:35:45;7.00;;;3.90;;
16593;SDS011;8410;52.532;13.336;2022-07-23T09:38:17;7.80;;;4.07;;
16593;SDS011;8410;52.532;13.336;2022-07-23T09:43:35;6.07;;;3.70;;
16593;SDS011;8410;52.532;13.336;2022-07-23T09:46:19;6.00;;;3.80;;
16593;SDS011;8410;52.532;13.336;2022-07-23T09:48:52;5.88;;;3.95;;
16593;SDS011;8410;52.532;13.336;2022-07-23T09:51:22;4.78;;;3.35;;
16593;SDS011;8410;52.532;13.336;2022-07-23T09:53:55;7.40;;;3.53;;
16593;SDS011;8410;52.532;13.336;2022-07-23T09:56:23;6.28;;;4.57;;
16593;SDS011;8410;52.532;13.336;2022-07-23T09:58:54;5.47;;;3.67;;
16593;SDS011;8410;52.532;13.336;2022-07-23T10:01:30;6.22;;;3.42;;
16593;SDS011;8410;52.532;13.336;2022-07-23T10:04:00;5.03;;;3.40;;
16593;SDS011;8410;52.532;13.336;2022-07-23T10:06:29;6.35;;;3.15;;
16593;SDS011;8410;52.532;13.336;2022-07-23T10:08:58;6.38;;;3.28;;
16593;SDS011;8410;52.532;13.336;2022-07-23T10:11:28;5.40;;;3.22;;
16593;SDS011;8410;52.532;13.336;2022-07-23T10:14:00;5.03;;;3.22;;
16593;SDS011;8410;52.532;13.336;2022-07-23T10:16:31;5.50;;;3.35;;
16593;SDS011;8410;52.532;13.336;2022-07-23T10:19:00;5.63;;;3.03;;
16593;SDS011;8410;52.532;13.336;2022-07-23T10:21:30;10.02;;;3.80;;
16593;SDS011;8410;52.532;13.336;2022-07-23T10:24:10;10.30;;;3.53;;
16593;SDS011;8410;52.532;13.336;2022-07-23T10:26:53;5.13;;;3.58;;
16593;SDS011;8410;52.532;13.336;2022-07-23T10:29:42;4.32;;;3.45;;
16593;SDS011;8410;52.532;13.336;2022-07-23T10:32:22;7.75;;;3.47;;
16593;SDS011;8410;52.532;13.336;2022-07-23T10:35:07;5.70;;;3.33;;
16593;SDS011;8410;52.532;13.336;2022-07-23T10:37:47;4.88;;;3.20;;
16593;SDS011;8410;52.532;13.336;2022-07-23T10:40:19;9.00;;;3.80;;
16593;SDS011;8410;52.532;13.336;2022-07-23T10:42:48;5.80;;;2.80;;
16593;SDS011;8410;52.532;13.336;2022-07-23T10:45:23;5.65;;;3.50;;
16593;SDS011;8410;52.532;13.336;2022-07-23T10:47:55;5.47;;;2.95;;
16593;SDS011;8410;52.532;13.336;2022-07-23T10:50:39;6.70;;;2.90;;
16593;SDS011;8410;52.532;13.336;2022-07-23T10:53:13;4.03;;;2.90;;
16593;SDS011;8410;52.532;13.336;2022-07-23T10:55:48;4.45;;;2.90;;
16593;SDS011;8410;52.532;13.336;2022-07-23T10:58:19;6.93;;;2.83;;
16593;SDS011;8410;52.532;13.336;2022-07-23T11:00:50;5.88;;;2.92;;
16593;SDS011;8410;52.532;13.336;2022-07-23T11:03:27;4.88;;;3.10;;
16593;SDS011;8410;52.532;13.336;2022-07-23T11:06:00;6.80;;;3.20;;
16593;SDS011;8410;52.532;13.336;2022-07-23T11:08:29;4.53;;;2.92;;
16593;SDS011;8410;52.532;13.336;2022-07-23T11:11:07;4.18;;;3.08;;
16593;SDS011;8410;52.532;13.336;2022-07-23T11:13:38;5.10;;;3.40;;
16593;SDS011;8410;52.532;13.336;2022-07-23T11:16:21;4.72;;;3.00;;
16593;SDS011;8410;52.532;13.336;2022-07-23T11:19:05;4.32;;;2.60;;
16593;SDS011;8410;52.532;13.336;2022-07-23T11:21:43;5.30;;;2.80;;
16593;SDS011;8410;52.532;13.336;2022-07-23T11:24:20;5.70;;;2.80;;
16593;SDS011;8410;52.532;13.336;2022-07-23T11:26:51;5.72;;;2.75;;
16593;SDS011;8410;52.532;13.336;2022-07-23T11:29:42;5.65;;;2.90;;
16593;SDS011;8410;52.532;13.336;2022-07-23T11:35:22;6.07;;;3.40;;
16593;SDS011;8410;52.532;13.336;2022-07-23T11:38:02;6.18;;;3.38;;
16593;SDS011;8410;52.532;13.336;2022-07-23T11:40:33;6.40;;;3.45;;
16593;SDS011;8410;52.532;13.336;2022-07-23T11:43:03;5.10;;;3.50;;
16593;SDS011;8410;52.532;13.336;2022-07-23T11:45:33;4.78;;;3.42;;
16593;SDS011;8410;52.532;13.336;2022-07-23T11:48:06;6.32;;;3.60;;
16593;SDS011;8410;52.532;13.336;2022-07-23T11:50:36;4.90;;;3.10;;
16593;SDS011;8410;52.532;13.336;2022-07-23T11:53:06;6.57;;;3.40;;
16593;SDS011;8410;52.532;13.336;2022-07-23T11:55:34;5.95;;;3.70;;
16593;SDS011;8410;52.532;13.336;2022-07-23T11:58:02;4.20;;;2.65;;
16593;SDS011;8410;52.532;13.336;2022-07-23T12:00:31;7.38;;;3.08;;
16593;SDS011;8410;52.532;13.336;2022-07-23T12:03:05;4.38;;;3.00;;
16593;SDS011;8410;52.532;13.336;2022-07-23T12:05:35;3.45;;;2.90;;
16593;SDS011;8410;52.532;13.336;2022-07-23T12:08:06;3.90;;;3.03;;
16593;SDS011;8410;52.532;13.336;2022-07-23T12:10:37;11.20;;;9.50;;
16593;SDS011;8410;52.532;13.336;2022-07-23T12:13:08;4.07;;;3.30;;
16593;SDS011;8410;52.532;13.336;2022-07-23T12:15:39;5.60;;;3.47;;
16593;SDS011;8410;52.532;13.336;2022-07-23T12:18:11;4.75;;;3.15;;
16593;SDS011;8410;52.532;13.336;2022-07-23T12:20:42;3.40;;;3.10;;
16593;SDS011;8410;52.532;13.336;2022-07-23T12:23:16;4.47;;;3.42;;
16593;SDS011;8410;52.532;13.336;2022-07-23T12:25:47;5.15;;;3.60;;
16593;SDS011;8410;52.532;13.336;2022-07-23T12:28:18;7.00;;;4.10;;
16593;SDS011;8410;52.532;13.336;2022-07-23T12:30:48;5.43;;;3.30;;
16593;SDS011;8410;52.532;13.336;2022-07-23T12:33:21;3.60;;;2.97;;
16593;SDS011;8410;52.532;13.336;2022-07-23T12:35:53;6.03;;;3.15;;
16593;SDS011;8410;52.532;13.336;2022-07-23T12:38:25;4.22;;;3.58;;
16593;SDS011;8410;52.532;13.336;2022-07-23T12:40:55;5.97;;;3.55;;
16593;SDS011;8410;52.532;13.336;2022-07-23T12:43:26;5.28;;;3.20;;
16593;SDS011;8410;52.532;13.336;2022-07-23T12:46:02;5.38;;;3.28;;
16593;SDS011;8410;52.532;13.336;2022-07-23T12:48:33;7.03;;;3.05;;
16593;SDS011;8410;52.532;13.336;2022-07-23T12:51:04;6.32;;;3.33;;
16593;SDS011;8410;52.532;13.336;2022-07-23T12:53:38;6.05;;;3.40;;
16593;SDS011;8410;52.532;13.336;2022-07-23T12:56:09;4.18;;;2.85;;
16593;SDS011;8410;52.532;13.336;2022-07-23T12:58:42;3.38;;;3.05;;
16593;SDS011;8410;52.532;13.336;2022-07-23T13:01:27;5.40;;;3.33;;
16593;SDS011;8410;52.532;13.336;2022-07-23T13:04:00;5.07;;;3.45;;
16593;SDS011;8410;52.532;13.336;2022-07-23T13:06:39;5.03;;;3.65;;
16593;SDS011;8410;52.532;13.336;2022-07-23T13:09:11;6.55;;;3.90;;
16593;SDS011;8410;52.532;13.336;2022-07-23T13:11:41;6.03;;;3.80;;
16593;SDS011;8410;52.532;13.336;2022-07-23T13:14:13;3.53;;;2.78;;
16593;SDS011;8410;52.532;13.336;2022-07-23T13:16:42;5.70;;;3.15;;
16593;SDS011;8410;52.532;13.336;2022-07-23T13:19:14;4.78;;;2.90;;
16593;SDS011;8410;52.532;13.336;2022-07-23T13:22:02;5.03;;;2.85;;
16593;SDS011;8410;52.532;13.336;2022-07-23T13:24:52;4.20;;;2.90;;
16593;SDS011;8410;52.532;13.336;2022-07-23T13:27:19;3.28;;;2.97;;
16593;SDS011;8410;52.532;13.336;2022-07-23T13:29:49;3.83;;;2.72;;
16593;SDS011;8410;52.532;13.336;2022-07-23T13:32:19;3.38;;;2.92;;
16593;SDS011;8410;52.532;13.336;2022-07-23T13:34:46;4.45;;;2.92;;
16593;SDS011;8410;52.532;13.336;2022-07-23T13:37:16;4.05;;;2.80;;
16593;SDS011;8410;52.532;13.336;2022-07-23T13:39:44;4.68;;;3.08;;
16593;SDS011;8410;52.532;13.336;2022-07-23T13:42:14;4.25;;;2.97;;
16593;SDS011;8410;52.532;13.336;2022-07-23T13:44:41;5.70;;;4.40;;
16593;SDS011;8410;52.532;13.336;2022-07-23T13:47:09;4.40;;;3.20;;
16593;SDS011;8410;52.532;13.336;2022-07-23T13:49:37;5.70;;;3.20;;
16593;SDS011;8410;52.532;13.336;2022-07-23T13:52:05;5.45;;;3.40;;
16593;SDS011;8410;52.532;13.336;2022-07-23T13:54:33;5.53;;;3.13;;
16593;SDS011;8410;52.532;13.336;2022-07-23T13:57:01;5.38;;;3.05;;
16593;SDS011;8410;52.532;13.336;2022-07-23T13:59:32;3.42;;;2.42;;
16593;SDS011;8410;52.532;13.336;2022-07-23T14:02:00;4.32;;;2.63;;
16593;SDS011;8410;52.532;13.336;2022-07-23T14:04:47;2.72;;;2.33;;
16593;SDS011;8410;52.532;13.336;2022-07-23T14:07:16;2.58;;;2.17;;
16593;SDS011;8410;52.532;13.336;2022-07-23T14:09:45;3.03;;;2.50;;
16593;SDS011;8410;52.532;13.336;2022-07-23T14:12:13;4.13;;;2.42;;
16593;SDS011;8410;52.532;13.336;2022-07-23T14:14:44;4.75;;;2.35;;
16593;SDS011;8410;52.532;13.336;2022-07-23T14:17:13;3.92;;;2.10;;
16593;SDS011;8410;52.532;13.336;2022-07-23T14:19:41;2.50;;;2.17;;
16593;SDS011;8410;52.532;13.336;2022-07-23T14:22:09;2.92;;;2.15;;
16593;SDS011;8410;52.532;13.336;2022-07-23T14:24:38;3.25;;;2.20;;
16593;SDS011;8410;52.532;13.336;2022-07-23T14:27:06;3.15;;;2.40;;
16593;SDS011;8410;52.532;13.336;2022-07-23T14:29:34;5.68;;;1.90;;
16593;SDS011;8410;52.532;13.336;2022-07-23T14:32:04;2.55;;;1.75;;
16593;SDS011;8410;52.532;13.336;2022-07-23T14:34:33;3.63;;;2.25;;
16593;SDS011;8410;52.532;13.336;2022-07-23T14:37:03;6.05;;;2.13;;
16593;SDS011;8410;52.532;13.336;2022-07-23T14:39:31;2.25;;;1.60;;
16593;SDS011;8410;52.532;13.336;2022-07-23T14:41:59;5.13;;;1.90;;
16593;SDS011;8410;52.532;13.336;2022-07-23T14:44:27;5.57;;;1.83;;
16593;SDS011;8410;52.532;13.336;2022-07-23T14:46:55;2.42;;;1.73;;
16593;SDS011;8410;52.532;13.336;2022-07-23T14:49:25;4.78;;;2.00;;
16593;SDS011;8410;52.532;13.336;2022-07-23T14:51:53;3.83;;;1.95;;
16593;SDS011;8410;52.532;13.336;2022-07-23T14:54:21;2.03;;;1.70;;
16593;SDS011;8410;52.532;13.336;2022-07-23T14:56:52;3.22;;;1.52;;
16593;SDS011;8410;52.532;13.336;2022-07-23T14:59:20;4.80;;;1.65;;
16593;SDS011;8410;52.532;13.336;2022-07-23T15:01:49;2.15;;;1.70;;
16593;SDS011;8410;52.532;13.336;2022-07-23T15:04:19;3.45;;;1.65;;
16593;SDS011;8410;52.532;13.336;2022-07-23T15:07:04;3.13;;;1.55;;
16593;SDS011;8410;52.532;13.336;2022-07-23T15:09:35;3.97;;;1.80;;
16593;SDS011;8410;52.532;13.336;2022-07-23T15:12:03;4.43;;;1.70;;
16593;SDS011;8410;52.532;13.336;2022-07-23T15:14:38;1.75;;;1.60;;
16593;SDS011;8410;52.532;13.336;2022-07-23T15:17:06;2.58;;;1.80;;
16593;SDS011;8410;52.532;13.336;2022-07-23T15:19:34;2.70;;;1.70;;